Time;durP1;ratioP1;P1;durP2;ratioP2;P2;SDS_P1;SDS_P2;PMS_P1;PMS_P2;Temp;Humidity;BMP_temperature;BMP_pressure;BME280_temperature;BME280_humidity;BME280_pressure;Samples;Min_cycle;Max_cycle;Signal;HPM_P1;HPM_P2
2022/06/22 00:00:39;;;;;;;;;;;24.90;99.90;;;;;;5016945;28;19955;-71
2022/06/22 00:03:09;;;;;;;;;;;24.90;99.90;;;;;;5016525;28;19993;-70
2022/06/22 00:05:49;;;;;;;;;;;24.90;99.90;;;;;;5017809;28;19909;-70
2022/06/22 00:08:17;;;;;;;;;;;24.90;99.90;;;;;;5015574;28;19910;-71
2022/06/22 00:10:45;;;;;;;;;;;24.90;99.90;;;;;;5017004;28;20324;-70
2022/06/22 00:13:16;;;;;;;;;;;24.80;99.90;;;;;;5017205;28;19917;-71
2022/06/22 00:16:07;;;;;;;;;;;24.80;99.90;;;;;;5017026;28;20823;-71
2022/06/22 00:18:45;;;;;;;;;;;24.90;99.90;;;;;;5012515;28;20054;-70
2022/06/22 00:21:13;;;;;;;;;;;24.90;99.90;;;;;;5016196;28;20365;-71
2022/06/22 00:23:41;;;;;;;;;;;24.90;99.90;;;;;;5016389;28;19909;-70
2022/06/22 00:26:22;;;;;;;;;;;24.90;99.90;;;;;;5015310;28;20278;-71
2022/06/22 00:29:06;;;;;;;;;;;24.90;99.90;;;;;;5016087;28;19909;-70
2022/06/22 00:31:57;;;;;;;;;;;24.90;99.90;;;;;;5016167;28;19996;-70
2022/06/22 00:34:25;;;;;;;;;;;24.90;99.90;;;;;;5016480;28;19921;-70
2022/06/22 00:36:59;;;;;;;;;;;24.90;99.90;;;;;;5015288;28;20375;-70
2022/06/22 00:39:25;;;;;;;;;;;24.90;99.90;;;;;;5015762;28;19996;-71
2022/06/22 00:41:51;;;;;;;;;;;24.90;99.90;;;;;;5016486;28;19945;-71
2022/06/22 00:44:17;;;;;;;;;;;24.90;99.90;;;;;;5016212;28;20378;-70
2022/06/22 00:46:50;;;;;;;;;;;24.90;99.90;;;;;;5016547;28;19962;-70
2022/06/22 00:49:18;;;;;;;;;;;24.90;99.90;;;;;;5016429;28;20373;-70
2022/06/22 00:51:43;;;;;;;;;;;24.90;99.90;;;;;;5001001;28;19992;-70
2022/06/22 00:54:14;;;;;;;;;;;24.90;99.90;;;;;;5014863;28;20019;-71
2022/06/22 00:56:46;;;;;;;;;;;24.90;99.90;;;;;;5016093;28;19924;-71
2022/06/22 00:59:32;;;;;;;;;;;24.90;99.90;;;;;;5016301;28;20366;-71
2022/06/22 01:02:17;;;;;;;;;;;24.80;99.90;;;;;;5008766;28;19910;-71
2022/06/22 01:04:57;;;;;;;;;;;24.90;99.90;;;;;;5016382;28;20378;-71
2022/06/22 01:07:25;;;;;;;;;;;24.80;99.90;;;;;;5014675;28;20262;-71
2022/06/22 01:10:00;;;;;;;;;;;24.80;99.90;;;;;;5016355;28;20378;-71
2022/06/22 01:12:29;;;;;;;;;;;24.80;99.90;;;;;;5015608;28;19921;-71
2022/06/22 01:15:07;;;;;;;;;;;24.70;99.90;;;;;;5014711;28;19958;-71
2022/06/22 01:17:36;;;;;;;;;;;24.70;99.90;;;;;;5015131;28;19967;-71
2022/06/22 01:20:05;;;;;;;;;;;24.70;99.90;;;;;;5015634;28;19910;-71
2022/06/22 01:22:39;;;;;;;;;;;24.60;99.90;;;;;;5015444;28;19910;-71
2022/06/22 01:25:05;;;;;;;;;;;24.60;99.90;;;;;;5015770;28;19909;-71
2022/06/22 01:27:35;;;;;;;;;;;24.50;99.90;;;;;;5015668;28;19906;-71
2022/06/22 01:30:03;;;;;;;;;;;24.60;99.90;;;;;;5015063;28;19906;-71
2022/06/22 01:32:30;;;;;;;;;;;24.60;99.90;;;;;;5015689;28;19980;-71
2022/06/22 01:34:57;;;;;;;;;;;24.60;99.90;;;;;;5015370;28;19909;-71
2022/06/22 01:37:25;;;;;;;;;;;24.70;99.90;;;;;;5015416;28;19916;-71
2022/06/22 01:39:51;;;;;;;;;;;24.70;99.90;;;;;;5015717;28;19917;-71
2022/06/22 01:42:19;;;;;;;;;;;24.70;99.90;;;;;;5014685;28;19905;-71
2022/06/22 01:44:48;;;;;;;;;;;24.60;99.90;;;;;;5015131;28;19936;-71
2022/06/22 01:47:22;;;;;;;;;;;24.60;99.90;;;;;;5015001;28;19956;-71
2022/06/22 01:49:50;;;;;;;;;;;24.70;99.90;;;;;;5014980;28;19963;-71
2022/06/22 01:52:25;;;;;;;;;;;24.70;99.90;;;;;;5015166;28;19913;-71
2022/06/22 01:54:55;;;;;;;;;;;24.60;99.90;;;;;;5015761;28;19972;-71
2022/06/22 01:57:24;;;;;;;;;;;24.60;99.90;;;;;;5014562;28;19905;-71
2022/06/22 01:59:54;;;;;;;;;;;24.60;99.90;;;;;;5030380;28;20392;-71
2022/06/22 02:02:23;;;;;;;;;;;24.60;99.90;;;;;;5014920;28;19936;-71
2022/06/22 02:04:58;;;;;;;;;;;24.70;99.90;;;;;;5013764;28;20293;-71
2022/06/22 02:07:45;;;;;;;;;;;24.60;99.90;;;;;;5014768;28;19909;-71
2022/06/22 02:10:29;;;;;;;;;;;24.60;99.90;;;;;;5015150;28;20366;-71
2022/06/22 02:12:55;;;;;;;;;;;24.50;99.90;;;;;;5000920;28;20445;-71
2022/06/22 02:15:29;;;;;;;;;;;24.50;99.90;;;;;;5026935;28;19956;-71
2022/06/22 02:17:56;;;;;;;;;;;24.50;99.90;;;;;;5031137;28;20397;-71
2022/06/22 02:20:31;;;;;;;;;;;24.50;99.90;;;;;;5014624;28;19923;-71
2022/06/22 02:23:00;;;;;;;;;;;24.40;99.90;;;;;;5014464;28;19909;-71
2022/06/22 02:25:26;;;;;;;;;;;24.50;99.90;;;;;;5014554;28;19916;-71
2022/06/22 02:27:52;;;;;;;;;;;24.40;99.90;;;;;;5014512;28;19909;-71
2022/06/22 02:30:17;;;;;;;;;;;24.30;99.90;;;;;;5013859;28;20012;-71
2022/06/22 02:32:44;;;;;;;;;;;24.30;99.90;;;;;;5015010;28;20331;-71
2022/06/22 02:35:11;;;;;;;;;;;24.30;99.90;;;;;;5014143;28;19924;-71
2022/06/22 02:37:38;;;;;;;;;;;24.30;99.90;;;;;;5014305;28;19909;-71
2022/06/22 02:40:06;;;;;;;;;;;24.30;99.90;;;;;;5014730;28;20004;-71
2022/06/22 02:45:19;;;;;;;;;;;24.20;99.90;;;;;;5009817;28;20050;-71
2022/06/22 02:47:47;;;;;;;;;;;24.20;99.90;;;;;;5013794;28;19920;-71
2022/06/22 02:50:15;;;;;;;;;;;24.10;99.90;;;;;;5014055;28;19910;-71
2022/06/22 02:52:45;;;;;;;;;;;24.20;99.90;;;;;;5014310;28;19917;-71
2022/06/22 02:55:12;;;;;;;;;;;24.20;99.90;;;;;;5014256;28;19955;-71
2022/06/22 02:57:53;;;;;;;;;;;24.10;99.90;;;;;;5018435;28;20546;-71
2022/06/22 03:00:20;;;;;;;;;;;24.20;99.90;;;;;;5013881;28;19964;-71
2022/06/22 03:02:47;;;;;;;;;;;24.20;99.90;;;;;;5018672;28;19910;-71
2022/06/22 03:05:13;;;;;;;;;;;24.20;99.90;;;;;;5016971;28;19928;-71
2022/06/22 03:07:41;;;;;;;;;;;24.20;99.90;;;;;;5017701;28;20362;-71
2022/06/22 03:10:07;;;;;;;;;;;24.20;99.90;;;;;;5018486;28;19913;-71
2022/06/22 03:12:33;;;;;;;;;;;24.10;99.90;;;;;;5017927;28;20436;-71
2022/06/22 03:15:01;;;;;;;;;;;24.20;99.90;;;;;;5017047;28;19913;-72
2022/06/22 03:17:30;;;;;;;;;;;24.10;99.90;;;;;;5017937;28;19956;-71
2022/06/22 03:20:26;;;;;;;;;;;24.10;99.90;;;;;;5018082;28;19910;-71
2022/06/22 03:22:53;;;;;;;;;;;24.00;99.90;;;;;;5009063;28;20366;-71
2022/06/22 03:25:22;;;;;;;;;;;24.00;99.90;;;;;;5017467;28;19913;-72
2022/06/22 03:27:50;;;;;;;;;;;23.90;99.90;;;;;;5017606;28;19909;-72
2022/06/22 03:30:20;;;;;;;;;;;23.90;99.90;;;;;;5017306;28;19905;-72
2022/06/22 03:32:49;;;;;;;;;;;24.00;99.90;;;;;;5017658;28;19921;-72
2022/06/22 03:35:15;;;;;;;;;;;24.00;99.90;;;;;;5017713;28;20286;-71
2022/06/22 03:37:48;;;;;;;;;;;24.00;99.90;;;;;;5017615;28;20588;-72
2022/06/22 03:40:40;;;;;;;;;;;24.00;99.90;;;;;;5017675;28;19909;-72
2022/06/22 03:43:13;;;;;;;;;;;24.00;99.90;;;;;;5007343;28;20254;-72
2022/06/22 03:45:47;;;;;;;;;;;24.00;99.90;;;;;;5032888;28;20284;-72
2022/06/22 03:48:36;;;;;;;;;;;23.90;99.90;;;;;;5012869;28;19913;-71
2022/06/22 03:51:01;;;;;;;;;;;23.90;99.90;;;;;;5013492;28;19971;-71
2022/06/22 03:53:30;;;;;;;;;;;23.90;99.90;;;;;;5017335;28;20021;-72
2022/06/22 03:55:59;;;;;;;;;;;23.70;99.90;;;;;;5017143;28;19913;-72
2022/06/22 03:58:25;;;;;;;;;;;23.80;99.90;;;;;;5017181;28;19909;-72
2022/06/22 04:00:51;;;;;;;;;;;23.80;99.90;;;;;;5017352;28;19916;-72
2022/06/22 04:03:18;;;;;;;;;;;23.70;99.90;;;;;;5016979;28;19905;-72
2022/06/22 04:05:55;;;;;;;;;;;23.80;99.90;;;;;;5018883;28;19906;-71
2022/06/22 04:08:29;;;;;;;;;;;23.70;99.90;;;;;;5016805;28;19983;-72
2022/06/22 04:10:58;;;;;;;;;;;23.70;99.90;;;;;;5016814;28;19909;-72
2022/06/22 04:13:28;;;;;;;;;;;23.70;99.90;;;;;;5016656;28;19925;-72
2022/06/22 04:15:58;;;;;;;;;;;23.70;99.90;;;;;;5016962;28;20000;-71
2022/06/22 04:18:28;;;;;;;;;;;23.70;99.90;;;;;;5016022;28;20321;-72
2022/06/22 04:21:00;;;;;;;;;;;23.70;99.90;;;;;;5016276;28;19910;-72
2022/06/22 04:23:30;;;;;;;;;;;23.70;99.90;;;;;;5016667;28;20342;-71
2022/06/22 04:25:59;;;;;;;;;;;23.80;99.90;;;;;;5015371;28;20357;-72
2022/06/22 04:28:26;;;;;;;;;;;23.80;99.90;;;;;;5016808;28;19917;-72
2022/06/22 04:30:54;;;;;;;;;;;23.70;99.90;;;;;;5016565;28;19936;-72
2022/06/22 04:33:26;;;;;;;;;;;23.80;99.90;;;;;;5015858;28;19924;-72
2022/06/22 04:35:58;;;;;;;;;;;23.70;99.90;;;;;;5017564;28;19917;-72
2022/06/22 04:38:30;;;;;;;;;;;23.70;99.90;;;;;;5016262;28;19988;-72
2022/06/22 04:41:19;;;;;;;;;;;23.30;99.90;;;;;;5016540;28;19990;-71
2022/06/22 04:43:46;;;;;;;;;;;23.40;99.90;;;;;;5015248;28;20390;-71
2022/06/22 04:46:15;;;;;;;;;;;23.50;99.90;;;;;;5016272;28;20420;-71
2022/06/22 04:48:42;;;;;;;;;;;23.50;99.90;;;;;;5016364;28;19917;-71
2022/06/22 04:51:13;;;;;;;;;;;23.40;99.90;;;;;;5015972;28;19996;-71
2022/06/22 04:53:41;;;;;;;;;;;23.40;99.90;;;;;;5016352;28;19921;-72
2022/06/22 04:56:09;;;;;;;;;;;23.40;99.90;;;;;;5016234;28;19909;-72
2022/06/22 04:58:45;;;;;;;;;;;23.40;99.90;;;;;;5016367;28;20285;-72
2022/06/22 05:01:19;;;;;;;;;;;23.50;99.90;;;;;;5016157;28;19909;-71
2022/06/22 05:03:45;;;;;;;;;;;23.50;99.90;;;;;;5002834;28;19917;-71
2022/06/22 05:06:18;;;;;;;;;;;23.40;99.90;;;;;;5014630;28;19905;-71
2022/06/22 05:08:50;;;;;;;;;;;23.40;99.90;;;;;;5013604;28;19910;-71
2022/06/22 05:11:21;;;;;;;;;;;23.50;99.90;;;;;;5015993;28;19909;-71
2022/06/22 05:13:51;;;;;;;;;;;23.50;99.90;;;;;;5015791;28;20440;-71
2022/06/22 05:16:33;;;;;;;;;;;23.50;99.90;;;;;;5014952;28;19910;-75
2022/06/22 05:19:05;;;;;;;;;;;23.60;99.90;;;;;;5013036;28;20292;-74
2022/06/22 05:21:39;;;;;;;;;;;23.60;99.90;;;;;;5004886;28;19913;-76
2022/06/22 05:24:09;;;;;;;;;;;23.50;99.90;;;;;;5015620;28;19906;-75
2022/06/22 05:26:49;;;;;;;;;;;23.50;99.90;;;;;;5017178;28;19917;-76
2022/06/22 05:29:30;;;;;;;;;;;23.60;99.90;;;;;;5016048;28;20360;-77
2022/06/22 05:32:08;;;;;;;;;;;23.60;99.90;;;;;;5010899;28;19916;-76
2022/06/22 05:34:38;;;;;;;;;;;23.50;99.90;;;;;;5012259;28;19921;-76
2022/06/22 05:37:07;;;;;;;;;;;23.50;99.90;;;;;;5006732;28;19970;-74
2022/06/22 05:39:34;;;;;;;;;;;23.50;99.90;;;;;;5013421;28;19910;-74
2022/06/22 05:42:06;;;;;;;;;;;23.60;99.90;;;;;;5013230;28;19905;-73
2022/06/22 05:44:33;;;;;;;;;;;23.60;99.90;;;;;;5013390;28;19996;-74
2022/06/22 05:47:04;;;;;;;;;;;23.60;99.90;;;;;;5014147;28;19914;-72
2022/06/22 05:49:41;;;;;;;;;;;23.60;99.90;;;;;;4998118;28;19976;-72
2022/06/22 05:52:13;;;;;;;;;;;23.70;99.90;;;;;;5013901;28;19962;-71
2022/06/22 05:54:54;;;;;;;;;;;23.70;99.90;;;;;;5001073;28;19924;-73
2022/06/22 05:57:36;;;;;;;;;;;23.80;99.90;;;;;;4993491;28;20362;-73
2022/06/22 06:00:06;;;;;;;;;;;23.80;99.90;;;;;;5011830;28;19940;-72
2022/06/22 06:02:37;;;;;;;;;;;23.70;99.90;;;;;;5013066;28;19909;-74
2022/06/22 06:05:27;;;;;;;;;;;23.70;99.90;;;;;;5015103;28;20332;-74
2022/06/22 06:08:04;;;;;;;;;;;23.70;99.90;;;;;;5011409;28;20353;-73
2022/06/22 06:10:41;;;;;;;;;;;23.70;99.90;;;;;;5021593;28;19916;-74
2022/06/22 06:13:17;;;;;;;;;;;23.80;99.90;;;;;;5018867;28;19932;-74
2022/06/22 06:15:47;;;;;;;;;;;23.70;99.90;;;;;;5013287;28;19921;-74
2022/06/22 06:18:29;;;;;;;;;;;23.70;99.90;;;;;;5008417;28;20057;-74
2022/06/22 06:21:03;;;;;;;;;;;23.90;99.90;;;;;;5001508;28;19906;-74
2022/06/22 06:23:36;;;;;;;;;;;23.90;99.90;;;;;;4995242;28;19910;-74
2022/06/22 06:28:57;;;;;;;;;;;24.00;99.90;;;;;;4994210;28;19956;-74
2022/06/22 06:31:36;;;;;;;;;;;24.10;99.90;;;;;;4991454;28;20000;-74
2022/06/22 06:34:09;;;;;;;;;;;24.10;99.90;;;;;;4982777;28;19984;-73
2022/06/22 06:36:39;;;;;;;;;;;24.20;99.90;;;;;;4992747;28;19905;-73
2022/06/22 06:39:16;;;;;;;;;;;24.30;99.90;;;;;;4991711;28;19910;-73
2022/06/22 06:41:47;;;;;;;;;;;24.30;99.90;;;;;;4992607;28;20471;-73
2022/06/22 06:44:17;;;;;;;;;;;24.40;99.90;;;;;;4992100;28;19945;-73
2022/06/22 06:46:54;;;;;;;;;;;24.30;99.90;;;;;;4992439;28;20417;-73
2022/06/22 06:49:25;;;;;;;;;;;24.40;99.90;;;;;;4992203;28;19913;-73
2022/06/22 06:52:10;;;;;;;;;;;24.50;99.90;;;;;;4993965;28;20382;-73
2022/06/22 06:54:40;;;;;;;;;;;24.60;99.90;;;;;;4992523;28;20593;-74
2022/06/22 06:57:06;;;;;;;;;;;24.50;99.90;;;;;;4991867;28;20002;-74
2022/06/22 06:59:33;;;;;;;;;;;24.60;99.90;;;;;;4983279;28;20020;-74
2022/06/22 07:02:05;;;;;;;;;;;24.70;99.90;;;;;;4982110;28;19909;-74
2022/06/22 07:04:33;;;;;;;;;;;24.70;99.90;;;;;;4989382;28;20322;-74
2022/06/22 07:07:10;;;;;;;;;;;24.70;99.90;;;;;;4979085;28;20000;-74
2022/06/22 07:09:38;;;;;;;;;;;24.70;99.90;;;;;;4987673;28;19913;-73
2022/06/22 07:12:20;;;;;;;;;;;24.80;99.90;;;;;;4972943;28;19906;-73
2022/06/22 07:14:46;;;;;;;;;;;24.80;99.90;;;;;;4987680;28;19925;-72
2022/06/22 07:17:14;;;;;;;;;;;24.90;99.90;;;;;;4987916;28;19984;-74
2022/06/22 07:19:53;;;;;;;;;;;24.90;99.90;;;;;;4993370;28;19917;-74
2022/06/22 07:22:25;;;;;;;;;;;24.90;99.90;;;;;;5009993;28;19909;-74
2022/06/22 07:24:55;;;;;;;;;;;25.00;99.90;;;;;;4994894;28;19909;-73
2022/06/22 07:27:28;;;;;;;;;;;25.00;99.90;;;;;;5009007;28;19951;-72
2022/06/22 07:30:06;;;;;;;;;;;25.00;99.90;;;;;;5025087;28;20365;-73
2022/06/22 07:32:38;;;;;;;;;;;25.00;99.90;;;;;;5008271;28;20304;-74
2022/06/22 07:35:12;;;;;;;;;;;25.10;99.90;;;;;;5008663;28;19913;-73
2022/06/22 07:37:40;;;;;;;;;;;25.10;99.90;;;;;;5009695;28;19992;-73
2022/06/22 07:40:11;;;;;;;;;;;25.20;99.90;;;;;;5018383;23;19924;-72
2022/06/22 07:42:37;;;;;;;;;;;25.20;99.90;;;;;;5027843;28;19967;-71
2022/06/22 07:45:03;;;;;;;;;;;25.20;99.90;;;;;;5019293;28;19905;-72
2022/06/22 07:47:36;;;;;;;;;;;25.20;99.90;;;;;;5018927;28;19906;-71
2022/06/22 07:50:13;;;;;;;;;;;25.20;99.90;;;;;;5008547;28;19913;-71
2022/06/22 07:52:49;;;;;;;;;;;25.30;99.90;;;;;;5010419;28;19921;-71
2022/06/22 07:55:35;;;;;;;;;;;25.30;99.90;;;;;;5008990;28;19917;-71
2022/06/22 07:58:19;;;;;;;;;;;25.40;99.90;;;;;;5009755;28;20488;-71
2022/06/22 08:00:47;;;;;;;;;;;25.40;99.90;;;;;;5008127;28;20302;-71
2022/06/22 08:03:31;;;;;;;;;;;25.40;99.90;;;;;;5012131;28;19905;-71
2022/06/22 08:05:59;;;;;;;;;;;25.40;99.90;;;;;;5011979;28;20416;-71
2022/06/22 08:08:31;;;;;;;;;;;25.50;99.90;;;;;;5007791;28;19909;-71
2022/06/22 08:10:59;;;;;;;;;;;25.50;99.90;;;;;;5008831;28;19913;-72
2022/06/22 08:13:27;;;;;;;;;;;25.60;99.90;;;;;;5007727;28;20020;-71
2022/06/22 08:15:53;;;;;;;;;;;25.60;99.90;;;;;;5008474;28;19917;-72
2022/06/22 08:18:19;;;;;;;;;;;25.70;99.90;;;;;;5012280;28;19905;-72
2022/06/22 08:20:46;;;;;;;;;;;25.80;99.90;;;;;;5010617;28;19963;-72
2022/06/22 08:23:15;;;;;;;;;;;25.70;99.90;;;;;;5007857;28;20374;-72
2022/06/22 08:25:44;;;;;;;;;;;25.80;99.90;;;;;;5007873;28;19967;-72
2022/06/22 08:28:13;;;;;;;;;;;25.80;99.90;;;;;;5007996;28;20369;-71
2022/06/22 08:30:39;;;;;;;;;;;25.80;99.90;;;;;;5010092;28;20299;-72
2022/06/22 08:33:06;;;;;;;;;;;25.80;99.90;;;;;;5008903;28;19917;-71
2022/06/22 08:35:36;;;;;;;;;;;25.80;99.90;;;;;;5007681;28;19916;-72
2022/06/22 08:38:07;;;;;;;;;;;25.80;99.90;;;;;;5007665;28;19913;-71
2022/06/22 08:40:53;;;;;;;;;;;25.70;99.90;;;;;;5007690;28;19957;-72
2022/06/22 08:43:32;;;;;;;;;;;25.70;99.90;;;;;;5008610;28;19999;-72
2022/06/22 08:46:10;;;;;;;;;;;25.80;99.90;;;;;;4994344;28;19910;-71
2022/06/22 08:48:44;;;;;;;;;;;25.90;99.90;;;;;;5009426;28;20000;-72
2022/06/22 08:51:19;;;;;;;;;;;26.10;99.90;;;;;;5008582;28;19909;-72
2022/06/22 08:54:03;;;;;;;;;;;26.20;99.90;;;;;;5008429;28;19921;-71
2022/06/22 08:56:43;;;;;;;;;;;26.20;99.90;;;;;;5007350;28;20283;-72
2022/06/22 08:59:08;;;;;;;;;;;26.20;99.90;;;;;;5007663;28;19917;-71
2022/06/22 09:01:58;;;;;;;;;;;26.30;99.90;;;;;;5007172;28;20067;-72
2022/06/22 09:04:39;;;;;;;;;;;26.30;99.90;;;;;;5008385;28;19951;-72
2022/06/22 09:07:23;;;;;;;;;;;26.40;99.90;;;;;;5006823;28;19917;-72
2022/06/22 09:09:48;;;;;;;;;;;26.50;99.90;;;;;;4992573;28;19913;-72
2022/06/22 09:12:49;;;;;;;;;;;26.40;99.90;;;;;;5010377;28;20286;-73
2022/06/22 09:15:33;;;;;;;;;;;26.60;99.90;;;;;;4930680;29;19966;-71
2022/06/22 09:18:01;;;;;;;;;;;26.60;99.90;;;;;;4933351;29;19910;-71
2022/06/22 09:20:37;;;;;;;;;;;26.60;99.90;;;;;;4932774;29;20009;-72
2022/06/22 09:23:11;;;;;;;;;;;26.60;99.90;;;;;;4930089;29;20400;-72
2022/06/22 09:25:45;;;;;;;;;;;26.70;99.90;;;;;;4929203;29;19915;-72
2022/06/22 09:28:15;;;;;;;;;;;26.80;99.90;;;;;;4928918;29;19921;-72
2022/06/22 09:30:47;;;;;;;;;;;26.90;99.90;;;;;;4929346;29;19918;-72
2022/06/22 09:33:12;;;;;;;;;;;27.00;99.90;;;;;;4930253;29;19950;-71
2022/06/22 09:36:10;;;;;;;;;;;27.00;99.90;;;;;;4927664;29;19937;-72
2022/06/22 09:38:41;;;;;;;;;;;27.00;99.90;;;;;;4857135;29;20390;-72
2022/06/22 09:41:29;;;;;;;;;;;26.80;99.90;;;;;;4856190;29;19931;-72
2022/06/22 09:44:04;;;;;;;;;;;26.90;99.90;;;;;;4855537;29;19957;-72
2022/06/22 09:46:48;;;;;;;;;;;27.10;99.90;;;;;;4855898;29;19916;-72
2022/06/22 09:49:20;;;;;;;;;;;27.10;99.90;;;;;;4879221;29;19914;-72
2022/06/22 09:52:04;;;;;;;;;;;27.10;99.90;;;;;;4908393;29;20215;-72
2022/06/22 09:57:28;;;;;;;;;;;27.20;99.90;;;;;;4910305;29;20001;-74
2022/06/22 10:00:09;;;;;;;;;;;27.30;99.90;;;;;;4911218;29;19915;-72
2022/06/22 10:02:54;;;;;;;;;;;27.40;99.90;;;;;;4910622;29;19911;-72
2022/06/22 10:05:43;;;;;;;;;;;27.40;99.90;;;;;;4909254;29;20383;-72
2022/06/22 10:08:31;;;;;;;;;;;27.50;99.90;;;;;;4903360;29;20384;-72
2022/06/22 10:10:57;;;;;;;;;;;27.50;99.90;;;;;;4902746;29;19914;-72
2022/06/22 10:13:22;;;;;;;;;;;27.40;99.90;;;;;;4924621;28;20306;-73
2022/06/22 10:15:55;;;;;;;;;;;27.50;99.90;;;;;;5011753;28;19913;-73
2022/06/22 10:18:27;;;;;;;;;;;27.50;99.90;;;;;;5005662;28;19909;-73
2022/06/22 10:21:05;;;;;;;;;;;27.60;99.90;;;;;;5006505;28;19917;-73
2022/06/22 10:23:33;;;;;;;;;;;27.60;99.90;;;;;;5005853;28;19913;-73
2022/06/22 10:26:01;;;;;;;;;;;27.60;99.90;;;;;;5005877;28;20378;-73
2022/06/22 10:28:30;;;;;;;;;;;27.60;99.90;;;;;;5006107;28;19913;-73
2022/06/22 10:31:01;;;;;;;;;;;27.40;99.90;;;;;;5004825;28;19913;-73
2022/06/22 10:33:39;;;;;;;;;;;27.50;99.90;;;;;;5007656;28;20444;-74
2022/06/22 10:36:16;;;;;;;;;;;27.50;99.90;;;;;;5020024;28;20410;-74
2022/06/22 10:38:57;;;;;;;;;;;27.70;99.90;;;;;;5017408;28;19913;-73
2022/06/22 10:47:17;;;;;;;;;;;27.70;99.90;;;;;;5005596;28;19916;-73
2022/06/22 10:49:57;;;;;;;;;;;27.70;99.90;;;;;;5007657;28;19921;-73
2022/06/22 10:52:22;;;;;;;;;;;27.70;99.90;;;;;;5009832;28;19992;-72
2022/06/22 10:55:01;;;;;;;;;;;27.60;99.90;;;;;;5008758;28;20089;-73
2022/06/22 10:57:27;;;;;;;;;;;27.50;99.90;;;;;;5025160;28;19984;-73
2022/06/22 10:59:52;;;;;;;;;;;27.70;99.90;;;;;;5017480;28;20000;-73
2022/06/22 11:02:36;;;;;;;;;;;27.70;99.90;;;;;;5017341;28;19910;-74
2022/06/22 11:05:11;;;;;;;;;;;27.80;99.90;;;;;;5016809;28;20022;-74
2022/06/22 11:07:45;;;;;;;;;;;27.70;99.90;;;;;;5016620;28;20409;-75
2022/06/22 11:10:10;;;;;;;;;;;27.30;99.90;;;;;;5015445;28;20378;-74
2022/06/22 11:12:39;;;;;;;;;;;27.10;99.90;;;;;;5014101;28;19920;-75
2022/06/22 11:15:14;;;;;;;;;;;27.10;99.90;;;;;;5016204;28;19932;-75
2022/06/22 11:17:40;;;;;;;;;;;26.90;99.90;;;;;;5020359;28;19910;-75
2022/06/22 11:20:24;;;;;;;;;;;27.00;99.90;;;;;;5020751;28;19917;-75
2022/06/22 11:22:54;;;;;;;;;;;27.00;99.90;;;;;;5020877;28;19910;-74
2022/06/22 11:30:48;;;;;;;;;;;27.10;99.90;;;;;;5020322;28;19910;-75
2022/06/22 11:31:06;;;;;;;;;;;26.90;99.90;;;;;;5004827;28;20293;-74
2022/06/22 11:33:48;;;;;;;;;;;26.80;99.90;;;;;;5018358;28;19960;-75
2022/06/22 11:36:22;;;;;;;;;;;26.80;99.90;;;;;;5019537;28;20294;-76
2022/06/22 11:38:57;;;;;;;;;;;26.70;99.90;;;;;;5022599;28;20362;-76
2022/06/22 11:41:34;;;;;;;;;;;26.60;99.90;;;;;;5020330;28;19917;-77
2022/06/22 11:44:00;;;;;;;;;;;26.60;99.90;;;;;;5021809;28;19956;-76
2022/06/22 11:46:29;;;;;;;;;;;26.50;99.90;;;;;;5008613;28;19913;-76
2022/06/22 11:49:09;;;;;;;;;;;26.50;99.90;;;;;;5008621;28;19917;-76
2022/06/22 11:51:34;;;;;;;;;;;26.70;99.90;;;;;;5010820;28;20402;-76
2022/06/22 11:54:07;;;;;;;;;;;27.00;99.90;;;;;;5010927;28;19960;-76
2022/06/22 11:56:52;;;;;;;;;;;27.00;99.90;;;;;;5008302;28;19928;-76
2022/06/22 11:59:20;;;;;;;;;;;27.20;99.90;;;;;;5008659;28;19964;-76
2022/06/22 12:01:58;;;;;;;;;;;27.20;99.90;;;;;;5007694;28;19921;-76
2022/06/22 12:04:40;;;;;;;;;;;27.10;99.90;;;;;;5008770;28;19925;-74
2022/06/22 12:07:14;;;;;;;;;;;27.10;99.90;;;;;;5007448;28;20352;-75
2022/06/22 12:09:46;;;;;;;;;;;27.20;99.90;;;;;;5005558;28;19917;-74
2022/06/22 12:12:30;;;;;;;;;;;27.20;99.90;;;;;;5010799;28;20417;-74
2022/06/22 12:15:10;;;;;;;;;;;27.40;99.90;;;;;;5007456;28;20333;-74
2022/06/22 12:17:55;;;;;;;;;;;27.30;99.90;;;;;;5006554;28;20425;-75
2022/06/22 12:20:21;;;;;;;;;;;27.50;99.90;;;;;;5009410;28;19913;-74
2022/06/22 12:23:01;;;;;;;;;;;27.50;99.90;;;;;;5002666;28;20044;-74
2022/06/22 12:25:35;;;;;;;;;;;27.50;99.90;;;;;;5007989;28;19918;-74
2022/06/22 12:28:21;;;;;;;;;;;27.60;99.90;;;;;;5002507;28;19940;-74
2022/06/22 12:30:50;;;;;;;;;;;27.60;99.90;;;;;;4999849;28;19917;-74
2022/06/22 12:33:18;;;;;;;;;;;27.80;99.90;;;;;;5007144;28;20472;-74
2022/06/22 12:35:44;;;;;;;;;;;27.90;99.90;;;;;;5008937;28;19920;-74
2022/06/22 12:38:22;;;;;;;;;;;28.10;99.90;;;;;;5003785;28;19909;-74
2022/06/22 12:40:57;;;;;;;;;;;27.90;99.90;;;;;;5002098;28;20027;-75
2022/06/22 12:43:41;;;;;;;;;;;28.00;99.90;;;;;;5011271;28;19913;-75
2022/06/22 12:46:13;;;;;;;;;;;27.90;99.90;;;;;;4994480;28;20350;-75
2022/06/22 12:48:47;;;;;;;;;;;27.80;99.90;;;;;;5005404;28;20043;-75
2022/06/22 12:51:26;;;;;;;;;;;27.60;99.90;;;;;;5021796;28;20292;-74
2022/06/22 12:53:54;;;;;;;;;;;27.60;99.90;;;;;;5006079;28;19929;-74
2022/06/22 12:56:29;;;;;;;;;;;27.70;99.90;;;;;;5004094;28;19952;-75
2022/06/22 12:59:00;;;;;;;;;;;27.70;99.90;;;;;;5006739;28;19910;-75
2022/06/22 13:01:25;;;;;;;;;;;27.70;99.90;;;;;;5009264;28;19962;-74
2022/06/22 13:03:59;;;;;;;;;;;27.80;99.90;;;;;;5009194;28;20366;-74
2022/06/22 13:06:27;;;;;;;;;;;27.70;99.90;;;;;;5015465;28;20432;-75
2022/06/22 13:08:53;;;;;;;;;;;27.70;99.90;;;;;;5016325;28;19920;-74
2022/06/22 13:11:21;;;;;;;;;;;27.70;99.90;;;;;;5015950;28;19913;-74
2022/06/22 13:13:47;;;;;;;;;;;27.60;99.90;;;;;;5017819;28;20016;-74
2022/06/22 13:16:21;;;;;;;;;;;27.70;99.90;;;;;;5014346;28;20393;-74
2022/06/22 13:18:55;;;;;;;;;;;27.80;99.90;;;;;;5012094;28;19936;-73
2022/06/22 13:21:26;;;;;;;;;;;27.90;99.90;;;;;;5022739;28;20269;-73
2022/06/22 13:23:58;;;;;;;;;;;27.70;99.90;;;;;;5016202;28;20061;-74
2022/06/22 13:26:42;;;;;;;;;;;27.80;99.90;;;;;;5014030;28;20436;-73
2022/06/22 13:29:30;;;;;;;;;;;27.90;99.90;;;;;;5017077;28;19909;-74
2022/06/22 13:31:58;;;;;;;;;;;27.80;99.90;;;;;;5015742;28;19917;-74
2022/06/22 13:34:28;;;;;;;;;;;27.80;99.90;;;;;;5016700;28;20305;-73
2022/06/22 13:37:16;;;;;;;;;;;27.80;99.90;;;;;;4996415;28;19920;-74
2022/06/22 13:39:53;;;;;;;;;;;27.70;99.90;;;;;;5012045;28;19956;-74
2022/06/22 13:42:25;;;;;;;;;;;28.00;99.90;;;;;;5021527;28;20038;-74
2022/06/22 13:44:51;;;;;;;;;;;27.70;99.90;;;;;;5022058;28;19915;-74
2022/06/22 13:47:19;;;;;;;;;;;27.70;99.90;;;;;;5019190;28;19914;-74
2022/06/22 13:50:17;;;;;;;;;;;27.80;99.90;;;;;;5015485;28;19920;-74
2022/06/22 13:52:47;;;;;;;;;;;27.80;99.90;;;;;;5016673;28;20305;-74
2022/06/22 13:55:12;;;;;;;;;;;27.70;99.90;;;;;;5014540;28;20007;-74
2022/06/22 13:57:38;;;;;;;;;;;27.60;99.90;;;;;;5013248;28;20048;-74
2022/06/22 14:00:04;;;;;;;;;;;27.50;99.90;;;;;;5014656;28;19917;-74
2022/06/22 14:02:39;;;;;;;;;;;27.50;99.90;;;;;;5014934;28;20430;-74
2022/06/22 14:05:19;;;;;;;;;;;27.80;99.90;;;;;;5015173;28;19963;-74
2022/06/22 14:07:44;;;;;;;;;;;27.70;99.90;;;;;;5018045;28;19917;-74
2022/06/22 14:10:16;;;;;;;;;;;27.70;99.90;;;;;;5014853;28;19913;-74
2022/06/22 14:12:44;;;;;;;;;;;27.90;99.90;;;;;;5017785;28;19925;-74
2022/06/22 14:15:26;;;;;;;;;;;27.80;99.90;;;;;;5016143;28;20339;-74
2022/06/22 14:18:00;;;;;;;;;;;27.80;99.90;;;;;;5017333;28;19910;-74
2022/06/22 14:20:52;;;;;;;;;;;27.90;99.90;;;;;;5017756;28;19924;-74
2022/06/22 14:23:19;;;;;;;;;;;27.90;99.90;;;;;;4946904;28;19914;-74
2022/06/22 14:25:48;;;;;;;;;;;27.80;99.90;;;;;;4947205;28;19997;-74
2022/06/22 14:28:22;;;;;;;;;;;27.80;99.90;;;;;;4946615;28;20311;-74
2022/06/22 14:30:53;;;;;;;;;;;27.70;99.90;;;;;;4953329;28;19910;-75
2022/06/22 14:33:28;;;;;;;;;;;27.80;99.90;;;;;;4947732;29;19929;-74
2022/06/22 14:36:12;;;;;;;;;;;27.80;99.90;;;;;;4942032;28;19976;-74
2022/06/22 14:38:51;;;;;;;;;;;27.70;99.90;;;;;;4943958;28;19943;-74
2022/06/22 14:41:25;;;;;;;;;;;27.70;99.90;;;;;;4941683;28;19923;-74
2022/06/22 14:43:55;;;;;;;;;;;27.70;99.90;;;;;;4943873;28;19911;-74
2022/06/22 14:46:32;;;;;;;;;;;27.70;99.90;;;;;;4941950;28;19915;-74
2022/06/22 14:49:16;;;;;;;;;;;27.50;99.90;;;;;;4953757;28;20004;-75
2022/06/22 14:51:41;;;;;;;;;;;27.60;99.90;;;;;;4936991;28;19925;-74
2022/06/22 14:54:16;;;;;;;;;;;27.40;99.90;;;;;;4938897;28;19922;-74
2022/06/22 14:56:46;;;;;;;;;;;27.40;99.90;;;;;;4949187;28;20404;-74
2022/06/22 14:59:12;;;;;;;;;;;27.40;99.90;;;;;;4954444;28;19950;-74
2022/06/22 15:01:48;;;;;;;;;;;27.40;99.90;;;;;;5006375;28;19940;-74
2022/06/22 15:04:17;;;;;;;;;;;27.40;99.90;;;;;;5001913;28;19920;-74
2022/06/22 15:06:47;;;;;;;;;;;27.40;99.90;;;;;;5013574;28;19960;-74